Wednesday, January 16, 2019, 12:05 AM GMT
Back to Local

CWSS, St. Stephen, N. B.

Location: , , Canada Lat: 45.217
Local Time: 12:05 AM GMT ( 0:05 GMT) Lon: -67.25
Time Zone: GMT Elev: 85 ft

Show me the last for .
Show Coded

Time T Td Feel RH Dir Speed Gust Alt SLP Vis Weather Sky Remarks
2019-01-15 23:00 13 10 - 86 - Calm - - 30.04 0 None
2019-01-15 22:00 19 13 - 77 270° 2 - - 30.02 0 None
2019-01-15 21:00 24 15 18 69 310° 5 - - 30.01 0 None
2019-01-15 20:00 26 15 20 60 320° 6 - - 29.98 0 None
2019-01-15 19:00 26 14 19 59 310° 7 - - 29.97 0 None
2019-01-15 18:00 25 14 17 62 340° 7 - - 29.97 0 None
2019-01-15 17:00 24 13 16 60 320° 8 - - 29.97 0 None
2019-01-15 16:00 21 11 10 64 310° 9 - - 30.00 0 None
2019-01-15 15:00 18 11 11 72 290° 5 - - 30.01 0 None
2019-01-15 14:00 15 9 10 75 260° 3 - - 30.00 0 None
2019-01-15 13:00 13 7 - 79 250° 2 - - 29.99 0 None
2019-01-15 12:00 7 3 - 84 240° 1 - - 29.98 0 None
2019-01-15 11:00 2 -1 - 85 220° 1 - - 29.98 0 None
2019-01-15 10:00 4 0 - 84 220° 2 - - 29.98 0 None
2019-01-15 09:00 7 2 - 79 290° 2 - - 29.96 0 None
2019-01-15 08:00 8 3 -3 80 260° 6 - - 29.96 0 None
2019-01-15 07:00 7 3 - 82 280° 2 - - 29.97 0 None
2019-01-15 06:00 6 3 0 84 280° 3 - - 29.98 0 None
2019-01-15 05:00 4 1 - 84 300° 1 - - 30.00 0 None
2019-01-15 04:00 5 2 - 87 260° 2 - - 30.03 0 None
2019-01-15 03:00 6 3 - 86 290° 1 - - 30.05 0 None
2019-01-15 02:00 7 3 - 84 300° 1 - - 30.05 0 None
2019-01-15 01:00 6 3 - 87 280° 1 - - 30.08 0 None

Support USWX by starting your Amazon purchase here.